Time,TemperatureF,DewpointF,PressureIn,WindDirection,WindDirectionDegrees,WindSpeedMPH,WindSpeedGustMPH,Humidity,HourlyPrecipIn,Conditions,Clouds,dailyrainin,SoftwareType,DateUTC
2013-02-12 00:01:00,12.0,1.0,-100.00,NW,315,9.0,11.0,61,-99.99,,,-99.99,,2013-02-12 00:01:00,
2013-02-12 00:11:00,11.0,0.0,-100.00,WNW,295,7.0,9.0,62,-99.99,,,-99.99,,2013-02-12 00:11:00,
2013-02-12 00:22:00,9.0,-1.0,-100.00,WNW,295,7.0,7.0,63,-99.99,,,-99.99,,2013-02-12 00:22:00,
2013-02-12 00:32:00,8.0,-2.0,-100.00,West,280,4.0,7.0,63,-99.99,,,-99.99,,2013-02-12 00:32:00,
2013-02-12 00:42:00,7.0,-3.0,-100.00,WNW,285,6.0,7.0,63,-99.99,,,-99.99,,2013-02-12 00:42:00,
2013-02-12 00:52:00,6.0,-4.0,-100.00,WNW,285,1.0,6.0,64,-99.99,,,-99.99,,2013-02-12 00:52:00,
2013-02-12 01:02:00,4.0,-5.0,-100.00,West,275,2.0,3.0,65,-99.99,,,-99.99,,2013-02-12 01:02:00,
2013-02-12 01:11:00,5.0,-4.0,-100.00,West,275,7.0,7.0,65,-99.99,,,-99.99,,2013-02-12 01:11:00,
2013-02-12 01:21:00,4.0,-5.0,-100.00,West,280,9.0,11.0,66,-99.99,,,-99.99,,2013-02-12 01:21:00,
2013-02-12 01:32:00,3.0,-5.0,-100.00,West,280,11.0,12.0,67,-99.99,,,-99.99,,2013-02-12 01:32:00,
2013-02-12 01:42:00,6.0,-3.0,-100.00,West,270,10.0,12.0,66,-99.99,,,-99.99,,2013-02-12 01:42:00,
2013-02-12 01:51:00,4.0,-5.0,-100.00,West,270,10.0,11.0,66,-99.99,,,-99.99,,2013-02-12 01:51:00,
2013-02-12 02:01:00,5.0,-3.0,-100.00,West,270,10.0,12.0,67,-99.99,,,-99.99,,2013-02-12 02:01:00,
2013-02-12 02:11:00,3.0,-4.0,-100.00,West,280,11.0,13.0,70,-99.99,,,-99.99,,2013-02-12 02:11:00,
2013-02-12 02:21:00,4.0,-3.0,-100.00,WNW,290,10.0,12.0,73,-99.99,,,-99.99,,2013-02-12 02:21:00,
2013-02-12 02:31:00,4.0,-3.0,-100.00,West,280,9.0,12.0,74,-99.99,,,-99.99,,2013-02-12 02:31:00,
2013-02-12 02:41:00,4.0,-2.0,-100.00,West,270,9.0,12.0,76,-99.99,,,-99.99,,2013-02-12 02:41:00,
2013-02-12 02:52:00,5.0,0.0,-100.00,West,265,12.0,14.0,77,-99.99,,,-99.99,,2013-02-12 02:52:00,
2013-02-12 03:02:00,5.0,-1.0,-100.00,West,260,12.0,14.0,76,-99.99,,,-99.99,,2013-02-12 03:02:00,
2013-02-12 03:11:00,5.0,-1.0,-100.00,WSW,255,12.0,15.0,76,-99.99,,,-99.99,,2013-02-12 03:11:00,
2013-02-12 03:21:00,5.0,-1.0,-100.00,West,260,13.0,16.0,77,-99.99,,,-99.99,,2013-02-12 03:21:00,
2013-02-12 03:31:00,4.0,-1.0,-100.00,West,270,12.0,16.0,78,-99.99,,,-99.99,,2013-02-12 03:31:00,
2013-02-12 03:41:00,5.0,-1.0,-100.00,West,265,15.0,19.0,77,-99.99,,,-99.99,,2013-02-12 03:41:00,
2013-02-12 03:51:00,5.0,-1.0,-100.00,West,270,14.0,19.0,77,-99.99,,,-99.99,,2013-02-12 03:51:00,
2013-02-12 04:01:00,5.0,0.0,-100.00,West,275,16.0,19.0,77,-99.99,,,-99.99,,2013-02-12 04:01:00,
2013-02-12 04:11:00,5.0,0.0,-100.00,West,270,16.0,20.0,79,-99.99,,,-99.99,,2013-02-12 04:11:00,
2013-02-12 04:21:00,4.0,0.0,-100.00,West,260,16.0,21.0,81,-99.99,,,-99.99,,2013-02-12 04:21:00,
2013-02-12 04:31:00,5.0,0.0,-100.00,West,260,16.0,20.0,82,-99.99,,,-99.99,,2013-02-12 04:31:00,
2013-02-12 04:41:00,5.0,0.0,-100.00,West,260,15.0,19.0,83,-99.99,,,-99.99,,2013-02-12 04:41:00,
2013-02-12 04:51:00,5.0,1.0,-100.00,West,260,18.0,21.0,82,-99.99,,,-99.99,,2013-02-12 04:51:00,
2013-02-12 05:01:00,6.0,2.0,-100.00,West,265,21.0,26.0,81,-99.99,,,-99.99,,2013-02-12 05:01:00,
2013-02-12 05:11:00,6.0,1.0,-100.00,West,260,18.0,26.0,81,-99.99,,,-99.99,,2013-02-12 05:11:00,
2013-02-12 05:21:00,5.0,1.0,-100.00,WSW,255,18.0,24.0,81,-99.99,,,-99.99,,2013-02-12 05:21:00,
2013-02-12 05:31:00,5.0,1.0,-100.00,West,260,20.0,26.0,82,-99.99,,,-99.99,,2013-02-12 05:31:00,
2013-02-12 05:42:00,4.0,0.0,-100.00,WSW,255,20.0,24.0,83,-99.99,,,-99.99,,2013-02-12 05:42:00,
2013-02-12 05:52:00,6.0,2.0,-100.00,West,260,24.0,29.0,82,-99.99,,,-99.99,,2013-02-12 05:52:00,
2013-02-12 06:01:00,5.0,1.0,-100.00,West,260,22.0,26.0,82,-99.99,,,-99.99,,2013-02-12 06:01:00,
2013-02-12 06:12:00,6.0,1.0,-100.00,West,260,21.0,27.0,81,-99.99,,,-99.99,,2013-02-12 06:12:00,
2013-02-12 06:21:00,6.0,2.0,-100.00,West,265,22.0,29.0,81,-99.99,,,-99.99,,2013-02-12 06:21:00,
2013-02-12 06:32:00,6.0,2.0,-100.00,West,265,21.0,27.0,80,-99.99,,,-99.99,,2013-02-12 06:32:00,
2013-02-12 06:42:00,6.0,2.0,-100.00,West,270,24.0,31.0,80,-99.99,,,-99.99,,2013-02-12 06:42:00,
2013-02-12 06:51:00,6.0,1.0,-100.00,West,265,24.0,29.0,81,-99.99,,,-99.99,,2013-02-12 06:51:00,
2013-02-12 07:01:00,5.0,1.0,-100.00,West,260,22.0,30.0,81,-99.99,,,-99.99,,2013-02-12 07:01:00,
2013-02-12 07:11:00,5.0,0.0,-100.00,West,260,21.0,26.0,82,-99.99,,,-99.99,,2013-02-12 07:11:00,
2013-02-12 07:21:00,5.0,1.0,-100.00,West,265,23.0,29.0,82,-99.99,,,-99.99,,2013-02-12 07:21:00,
2013-02-12 07:31:00,6.0,1.0,-100.00,West,265,26.0,33.0,81,-99.99,,,-99.99,,2013-02-12 07:31:00,
2013-02-12 07:41:00,5.0,1.0,-100.00,West,260,24.0,34.0,82,-99.99,,,-99.99,,2013-02-12 07:41:00,
2013-02-12 07:51:00,6.0,1.0,-100.00,West,265,27.0,32.0,82,-99.99,,,-99.99,,2013-02-12 07:51:00,
2013-02-12 08:01:00,6.0,2.0,-100.00,West,260,27.0,33.0,81,-99.99,,,-99.99,,2013-02-12 08:01:00,
2013-02-12 08:11:00,6.0,1.0,-100.00,West,260,25.0,31.0,80,-99.99,,,-99.99,,2013-02-12 08:11:00,
2013-02-12 08:21:00,6.0,1.0,-100.00,West,265,24.0,31.0,79,-99.99,,,-99.99,,2013-02-12 08:21:00,
2013-02-12 08:31:00,5.0,0.0,-100.00,West,260,21.0,27.0,79,-99.99,,,-99.99,,2013-02-12 08:31:00,
2013-02-12 08:41:00,5.0,0.0,-100.00,West,265,22.0,29.0,79,-99.99,,,-99.99,,2013-02-12 08:41:00,
2013-02-12 08:52:00,5.0,0.0,-100.00,West,265,23.0,28.0,79,-99.99,,,-99.99,,2013-02-12 08:52:00,
2013-02-12 09:01:00,5.0,0.0,-100.00,West,265,23.0,27.0,79,-99.99,,,-99.99,,2013-02-12 09:01:00,
2013-02-12 09:11:00,5.0,0.0,-100.00,West,260,21.0,29.0,79,-99.99,,,-99.99,,2013-02-12 09:11:00,
2013-02-12 09:21:00,5.0,0.0,-100.00,West,265,24.0,32.0,79,-99.99,,,-99.99,,2013-02-12 09:21:00,
2013-02-12 09:32:00,5.0,0.0,-100.00,West,260,22.0,32.0,79,-99.99,,,-99.99,,2013-02-12 09:32:00,
2013-02-12 09:41:00,5.0,0.0,-100.00,West,260,23.0,31.0,79,-99.99,,,-99.99,,2013-02-12 09:41:00,
2013-02-12 09:51:00,5.0,0.0,-100.00,West,265,28.0,34.0,80,-99.99,,,-99.99,,2013-02-12 09:51:00,
2013-02-12 10:01:00,5.0,0.0,-100.00,West,265,26.0,31.0,80,-99.99,,,-99.99,,2013-02-12 10:01:00,
2013-02-12 10:11:00,5.0,0.0,-100.00,West,265,27.0,32.0,79,-99.99,,,-99.99,,2013-02-12 10:11:00,
2013-02-12 10:21:00,5.0,0.0,-100.00,West,260,23.0,32.0,80,-99.99,,,-99.99,,2013-02-12 10:21:00,
2013-02-12 10:31:00,4.0,0.0,-100.00,West,260,26.0,35.0,79,-99.99,,,-99.99,,2013-02-12 10:31:00,
2013-02-12 10:43:00,4.0,-1.0,-100.00,West,265,26.0,32.0,80,-99.99,,,-99.99,,2013-02-12 10:43:00,
2013-02-12 10:51:00,4.0,0.0,-100.00,West,260,27.0,34.0,81,-99.99,,,-99.99,,2013-02-12 10:51:00,
2013-02-12 11:01:00,4.0,0.0,-100.00,West,260,26.0,34.0,81,-99.99,,,-99.99,,2013-02-12 11:01:00,
2013-02-12 11:11:00,4.0,0.0,-100.00,West,260,24.0,35.0,80,-99.99,,,-99.99,,2013-02-12 11:11:00,
2013-02-12 11:21:00,4.0,0.0,-100.00,West,260,24.0,30.0,80,-99.99,,,-99.99,,2013-02-12 11:21:00,
2013-02-12 11:31:00,4.0,0.0,-100.00,West,260,24.0,32.0,80,-99.99,,,-99.99,,2013-02-12 11:31:00,
2013-02-12 11:41:00,5.0,0.0,-100.00,West,265,25.0,31.0,80,-99.99,,,-99.99,,2013-02-12 11:41:00,
2013-02-12 11:52:00,5.0,0.0,-100.00,West,265,30.0,36.0,80,-99.99,,,-99.99,,2013-02-12 11:52:00,
2013-02-12 12:01:00,4.0,0.0,-100.00,West,260,28.0,35.0,81,-99.99,,,-99.99,,2013-02-12 12:01:00,
2013-02-12 12:11:00,4.0,-1.0,-100.00,West,265,27.0,34.0,81,-99.99,,,-99.99,,2013-02-12 12:11:00,
2013-02-12 12:21:00,4.0,0.0,-100.00,West,260,31.0,36.0,81,-99.99,,,-99.99,,2013-02-12 12:21:00,
2013-02-12 12:32:00,5.0,0.0,-100.00,West,265,32.0,38.0,81,-99.99,,,-99.99,,2013-02-12 12:32:00,
2013-02-12 12:42:00,4.0,0.0,-100.00,West,260,19.0,35.0,79,-99.99,,,-99.99,,2013-02-12 12:42:00,
2013-02-12 12:52:00,5.0,-1.0,-100.00,West,260,21.0,26.0,78,-99.99,,,-99.99,,2013-02-12 12:52:00,
2013-02-12 13:01:00,4.0,-1.0,-100.00,West,260,19.0,24.0,78,-99.99,,,-99.99,,2013-02-12 13:01:00,
2013-02-12 13:11:00,4.0,-1.0,-100.00,West,265,22.0,27.0,78,-99.99,,,-99.99,,2013-02-12 13:11:00,
2013-02-12 13:22:00,5.0,-1.0,-100.00,West,260,26.0,32.0,77,-99.99,,,-99.99,,2013-02-12 13:22:00,
2013-02-12 13:32:00,4.0,-1.0,-100.00,West,265,26.0,34.0,77,-99.99,,,-99.99,,2013-02-12 13:32:00,
2013-02-12 13:42:00,5.0,-1.0,-100.00,West,265,23.0,32.0,76,-99.99,,,-99.99,,2013-02-12 13:42:00,
2013-02-12 13:51:00,5.0,-1.0,-100.00,West,265,24.0,31.0,74,-99.99,,,-99.99,,2013-02-12 13:51:00,
2013-02-12 14:01:00,6.0,-1.0,-100.00,West,265,26.0,34.0,71,-99.99,,,-99.99,,2013-02-12 14:01:00,
2013-02-12 14:11:00,5.0,-2.0,-100.00,West,265,23.0,32.0,71,-99.99,,,-99.99,,2013-02-12 14:11:00,
2013-02-12 14:21:00,5.0,-2.0,-100.00,West,260,23.0,29.0,71,-99.99,,,-99.99,,2013-02-12 14:21:00,
2013-02-12 14:32:00,5.0,-2.0,-100.00,West,265,26.0,29.0,71,-99.99,,,-99.99,,2013-02-12 14:32:00,
2013-02-12 14:42:00,5.0,-2.0,-100.00,West,275,24.0,33.0,71,-99.99,,,-99.99,,2013-02-12 14:42:00,
2013-02-12 14:52:00,5.0,-2.0,-100.00,West,275,26.0,30.0,71,-99.99,,,-99.99,,2013-02-12 14:52:00,
2013-02-12 15:02:00,5.0,-2.0,-100.00,West,265,21.0,29.0,71,-99.99,,,-99.99,,2013-02-12 15:02:00,
2013-02-12 15:11:00,6.0,-2.0,-100.00,West,265,21.0,27.0,71,-99.99,,,-99.99,,2013-02-12 15:11:00,
2013-02-12 15:21:00,6.0,-2.0,-100.00,West,265,21.0,27.0,71,-99.99,,,-99.99,,2013-02-12 15:21:00,
2013-02-12 15:32:00,6.0,-1.0,-100.00,West,265,24.0,-999.0,69,-99.99,,,-99.99,,2013-02-12 15:32:00,
2013-02-12 15:52:00,7.0,0.0,-100.00,West,270,26.0,30.0,71,-99.99,,,-99.99,,2013-02-12 15:52:00,
2013-02-12 16:01:00,8.0,0.0,-100.00,West,265,22.0,30.0,71,-99.99,,,-99.99,,2013-02-12 16:01:00,
2013-02-12 16:11:00,8.0,1.0,-100.00,West,265,24.0,29.0,71,-99.99,,,-99.99,,2013-02-12 16:11:00,
2013-02-12 16:22:00,9.0,1.0,-100.00,West,265,24.0,31.0,70,-99.99,,,-99.99,,2013-02-12 16:22:00,
2013-02-12 16:31:00,9.0,2.0,-100.00,West,265,24.0,30.0,71,-99.99,,,-99.99,,2013-02-12 16:31:00,
2013-02-12 16:41:00,9.0,2.0,-100.00,West,265,24.0,30.0,72,-99.99,,,-99.99,,2013-02-12 16:41:00,
2013-02-12 16:51:00,10.0,3.0,-100.00,West,270,25.0,30.0,72,-99.99,,,-99.99,,2013-02-12 16:51:00,
2013-02-12 17:01:00,10.0,3.0,-100.00,West,270,25.0,30.0,73,-99.99,,,-99.99,,2013-02-12 17:01:00,
2013-02-12 17:11:00,11.0,4.0,-100.00,West,265,22.0,31.0,73,-99.99,,,-99.99,,2013-02-12 17:11:00,
2013-02-12 17:21:00,12.0,4.0,-100.00,West,275,23.0,29.0,71,-99.99,,,-99.99,,2013-02-12 17:21:00,
2013-02-12 17:32:00,12.0,5.0,-100.00,West,270,24.0,30.0,71,-99.99,,,-99.99,,2013-02-12 17:32:00,
2013-02-12 17:42:00,13.0,5.0,-100.00,West,270,24.0,31.0,71,-99.99,,,-99.99,,2013-02-12 17:42:00,
2013-02-12 17:52:00,13.0,5.0,-100.00,West,270,26.0,32.0,69,-99.99,,,-99.99,,2013-02-12 17:52:00,
2013-02-12 18:01:00,13.0,6.0,-100.00,West,265,27.0,32.0,70,-99.99,,,-99.99,,2013-02-12 18:01:00,
2013-02-12 18:11:00,13.0,6.0,-100.00,West,260,27.0,34.0,70,-99.99,,,-99.99,,2013-02-12 18:11:00,
2013-02-12 18:22:00,14.0,6.0,-100.00,West,260,26.0,32.0,70,-99.99,,,-99.99,,2013-02-12 18:22:00,
2013-02-12 18:31:00,14.0,6.0,-100.00,West,265,25.0,32.0,70,-99.99,,,-99.99,,2013-02-12 18:31:00,
2013-02-12 18:41:00,14.0,6.0,-100.00,West,260,28.0,34.0,69,-99.99,,,-99.99,,2013-02-12 18:41:00,
2013-02-12 18:51:00,15.0,7.0,-100.00,West,260,24.0,31.0,68,-99.99,,,-99.99,,2013-02-12 18:51:00,
2013-02-12 19:02:00,15.0,7.0,-100.00,West,260,21.0,28.0,68,-99.99,,,-99.99,,2013-02-12 19:02:00,
2013-02-12 19:11:00,15.0,6.0,-100.00,WSW,245,21.0,26.0,66,-99.99,,,-99.99,,2013-02-12 19:11:00,
2013-02-12 19:21:00,16.0,7.0,-100.00,West,260,17.0,23.0,66,-99.99,,,-99.99,,2013-02-12 19:21:00,
2013-02-12 19:31:00,17.0,8.0,-100.00,West,275,17.0,21.0,66,-99.99,,,-99.99,,2013-02-12 19:31:00,
2013-02-12 19:41:00,17.0,8.0,-100.00,West,260,20.0,24.0,66,-99.99,,,-99.99,,2013-02-12 19:41:00,
2013-02-12 19:51:00,18.0,9.0,-100.00,West,265,17.0,21.0,66,-99.99,,,-99.99,,2013-02-12 19:51:00,
2013-02-12 20:01:00,18.0,8.0,-100.00,West,265,18.0,24.0,65,-99.99,,,-99.99,,2013-02-12 20:01:00,
2013-02-12 20:11:00,18.0,8.0,-100.00,West,260,19.0,26.0,64,-99.99,,,-99.99,,2013-02-12 20:11:00,
2013-02-12 20:21:00,18.0,8.0,-100.00,West,260,21.0,26.0,64,-99.99,,,-99.99,,2013-02-12 20:21:00,
2013-02-12 20:31:00,18.0,9.0,-100.00,WSW,255,22.0,27.0,65,-99.99,,,-99.99,,2013-02-12 20:31:00,
2013-02-12 20:41:00,19.0,10.0,-100.00,West,260,21.0,26.0,65,-99.99,,,-99.99,,2013-02-12 20:41:00,
2013-02-12 20:51:00,19.0,9.0,-100.00,West,260,19.0,29.0,64,-99.99,,,-99.99,,2013-02-12 20:51:00,
2013-02-12 21:01:00,19.0,9.0,-100.00,West,265,22.0,29.0,65,-99.99,,,-99.99,,2013-02-12 21:01:00,
2013-02-12 21:11:00,20.0,10.0,-100.00,West,270,16.0,25.0,65,-99.99,,,-99.99,,2013-02-12 21:11:00,
2013-02-12 21:21:00,20.0,9.0,-100.00,West,270,18.0,22.0,63,-99.99,,,-99.99,,2013-02-12 21:21:00,
2013-02-12 21:31:00,18.0,8.0,-100.00,West,265,17.0,22.0,64,-99.99,,,-99.99,,2013-02-12 21:31:00,
2013-02-12 21:42:00,18.0,8.0,-100.00,West,265,17.0,23.0,65,-99.99,,,-99.99,,2013-02-12 21:42:00,
2013-02-12 21:51:00,18.0,9.0,-100.00,West,260,19.0,24.0,65,-99.99,,,-99.99,,2013-02-12 21:51:00,
2013-02-12 22:01:00,19.0,9.0,-100.00,West,260,21.0,24.0,65,-99.99,,,-99.99,,2013-02-12 22:01:00,
2013-02-12 22:12:00,18.0,8.0,-100.00,West,260,24.0,30.0,64,-99.99,,,-99.99,,2013-02-12 22:12:00,
2013-02-12 22:21:00,18.0,8.0,-100.00,WSW,245,24.0,31.0,63,-99.99,,,-99.99,,2013-02-12 22:21:00,
2013-02-12 22:32:00,19.0,9.0,-100.00,WSW,250,19.0,28.0,65,-99.99,,,-99.99,,2013-02-12 22:32:00,
2013-02-12 22:41:00,19.0,8.0,-100.00,WSW,250,23.0,27.0,63,-99.99,,,-99.99,,2013-02-12 22:41:00,
2013-02-12 22:51:00,18.0,8.0,-100.00,WSW,250,24.0,31.0,63,-99.99,,,-99.99,,2013-02-12 22:51:00,
2013-02-12 23:01:00,19.0,9.0,-100.00,West,260,23.0,29.0,63,-99.99,,,-99.99,,2013-02-12 23:01:00,
2013-02-12 23:11:00,19.0,9.0,-100.00,West,260,29.0,34.0,63,-99.99,,,-99.99,,2013-02-12 23:11:00,
2013-02-12 23:21:00,18.0,8.0,-100.00,West,260,30.0,36.0,64,-99.99,,,-99.99,,2013-02-12 23:21:00,
2013-02-12 23:31:00,18.0,9.0,-100.00,West,260,30.0,35.0,66,-99.99,,,-99.99,,2013-02-12 23:31:00,
2013-02-12 23:41:00,18.0,9.0,-100.00,West,260,30.0,37.0,67,-99.99,,,-99.99,,2013-02-12 23:41:00,
2013-02-12 23:52:00,17.0,9.0,-100.00,WSW,255,26.0,38.0,68,-99.99,,,-99.99,,2013-02-12 23:52:00,